Catàleg de serveis del Meteocat

Dades de l'estació automàtica Sant Martí Sarroca

?
?
Resum diari 22:30 TU
Dades diàries de l'estació meteorològica
Temperatura mitjana 9.7 °C
Temperatura màxima 12.5 °C 15:21 TU
Temperatura mínima 6.7 °C 22:43 TU
Humitat relativa mitjana 92%
Precipitació acumulada 4.2 mm
Ratxa màxima del vent (2 m) 34.6 km/h - 244º 18:11 TU
Irradiació solar global 4.0 MJ/m2

El tram horari està expressat en Temps Universal (TU). Cal sumar una hora en horari d'hivern i dues en horari d'estiu per passar a l'hora oficial.

Sant Martí Sarroca

Metadades estació meteorol´gica
Municipi Sant Martí Sarroca
Comarca Alt Penedès
Altitud 257 m
Data alta 24.05.1997
Estat actual Operativa
Dades de període
Període
TU
TM
°C
TX
°C
TN
°C
HRM
%
PPT
mm
VVM (2 m)
km/h
DVM (2 m)
graus
VVX (2 m)
km/h
RS
W/m2
00:00 - 00:30 9.7 9.7 9.7 93 0.0 1.4 354 5.8 0
00:30 - 01:00 9.5 9.6 9.4 95 0.0 0.7 305 2.5 0
01:00 - 01:30 9.4 9.5 9.2 95 0.0 0.7 60 2.9 0
01:30 - 02:00 9.0 9.2 8.8 96 0.0 1.1 206 2.5 0
02:00 - 02:30 8.8 8.9 8.8 97 0.0 0.7 299 4.0 0
02:30 - 03:00 8.9 9.0 8.7 96 0.0 0.4 59 2.5 0
03:00 - 03:30 8.8 8.9 8.7 96 0.0 1.1 324 3.2 0
03:30 - 04:00 8.8 8.9 8.6 96 0.0 0.7 303 2.2 0
04:00 - 04:30 8.3 8.6 8.1 96 0.0 1.8 321 5.0 0
04:30 - 05:00 7.8 8.2 7.7 96 0.0 1.8 315 4.3 0
05:00 - 05:30 7.4 7.7 7.2 96 0.0 1.1 336 3.6 0
05:30 - 06:00 7.6 8.0 7.5 97 0.0 2.2 331 8.3 0
06:00 - 06:30 8.1 8.1 8.0 96 0.0 1.8 335 5.8 0
06:30 - 07:00 8.2 8.2 8.0 95 0.0 1.4 337 4.0 1
07:00 - 07:30 8.1 8.5 7.9 96 0.0 1.4 339 6.5 52
07:30 - 08:00 9.1 9.6 8.5 92 0.0 2.5 346 6.5 97
08:00 - 08:30 9.9 10.5 9.5 88 0.0 2.9 11 7.9 175
08:30 - 09:00 10.5 10.9 10.2 86 0.0 3.2 47 7.9 128
09:00 - 09:30 10.2 10.3 10.1 87 0.0 3.2 5 9.7 121
09:30 - 10:00 10.2 10.4 10.1 87 0.2 3.2 23 7.6 124
10:00 - 10:30 10.4 10.6 10.3 88 0.0 2.9 3 7.2 99
10:30 - 11:00 10.8 11.3 10.6 87 0.0 2.9 28 10.1 171
11:00 - 11:30 11.1 11.3 11.0 86 0.0 4.7 37 9.4 174
11:30 - 12:00 11.2 11.5 11.1 86 0.0 4.0 12 11.5 158
12:00 - 12:30 11.4 11.5 11.3 87 0.2 3.2 23 7.9 116
12:30 - 13:00 11.3 11.6 11.3 90 0.1 3.6 31 10.1 133
13:00 - 13:30 11.9 12.1 11.7 89 0.0 3.6 36 9.0 212
13:30 - 14:00 12.0 12.2 11.8 88 0.0 4.0 51 9.4 122
14:00 - 14:30 12.3 12.4 12.2 87 0.0 2.5 3 6.1 103
14:30 - 15:00 12.3 12.3 12.2 86 0.0 3.6 39 8.3 132
15:00 - 15:30 12.4 12.5 12.3 85 0.0 4.0 47 9.4 109
15:30 - 16:00 12.1 12.3 11.9 87 0.0 2.2 33 5.8 31
16:00 - 16:30 11.5 11.9 11.2 90 0.0 1.1 5 4.3 6
16:30 - 17:00 11.2 11.2 11.1 92 0.0 0.7 19 3.2 0
17:00 - 17:30 11.1 11.1 11.1 91 0.0 1.1 322 4.0 0
17:30 - 18:00 11.0 11.1 10.9 92 0.0 1.1 332 3.6 0
18:00 - 18:30 10.5 11.4 9.5 88 2.3 6.8 297 34.6 0
18:30 - 19:00 9.3 9.5 9.1 93 1.4 3.2 285 11.9 0
19:00 - 19:30 9.0 9.1 8.9 95 0.0 3.6 17 7.9 0
19:30 - 20:00 8.7 8.9 8.6 95 0.0 2.9 337 10.4 0
20:00 - 20:30 8.6 8.6 8.5 96 0.0 1.8 344 5.8 0
20:30 - 21:00 8.4 8.4 8.2 97 0.0 1.4 129 5.4 0
21:00 - 21:30 8.0 8.2 8.0 97 0.0 1.4 164 4.0 0
21:30 - 22:00 7.9 8.1 7.4 97 0.0 2.2 320 6.1 0
22:00 - 22:30 7.0 7.4 6.7 97 0.0 1.4 327 6.1 0
22:30 - 23:00 7.5 9.4 6.7 94 0.0 2.9 319 10.4 0
23:00 - 23:30 (s/d) (s/d) (s/d) (s/d) (s/d) (s/d) (s/d) (s/d) (s/d)

Les dades en taronja només han passat un control de qualitat automàtic. Resta pendent la seva validació definitiva.